Time;durP1;ratioP1;P1;durP2;ratioP2;P2;SDS_P1;SDS_P2;PMS_P1;PMS_P2;Temp;Humidity;BMP_temperature;BMP_pressure;BME280_temperature;BME280_humidity;BME280_pressure;Samples;Min_cycle;Max_cycle;Signal;HPM_P1;HPM_P2
2023/10/15 00:00:22;;;;;;;11.80;5.40;;;;;;;14.77;74.53;99790.13;5140630;27;20057;-81
2023/10/15 00:02:49;;;;;;;9.73;5.47;;;;;;;14.43;76.07;99763.44;5145479;27;20484;-81
2023/10/15 00:05:19;;;;;;;9.10;5.18;;;;;;;15.04;73.08;99784.75;5132670;27;20027;-81
2023/10/15 00:07:49;;;;;;;10.10;5.57;;;;;;;14.73;74.68;99795.19;5135476;27;20030;-80
2023/10/15 00:10:16;;;;;;;11.85;5.72;;;;;;;14.92;73.94;99792.16;5130155;28;20023;-81
2023/10/15 00:12:44;;;;;;;14.63;6.93;;;;;;;15.07;72.78;99784.22;5131847;27;20058;-82
2023/10/15 00:15:18;;;;;;;13.70;6.25;;;;;;;15.03;72.46;99772.38;5133055;27;20027;-81
2023/10/15 00:17:48;;;;;;;8.68;5.38;;;;;;;15.13;72.93;99788.56;5131212;27;20422;-81
2023/10/15 00:20:17;;;;;;;12.18;6.30;;;;;;;15.25;72.10;99797.28;5132714;27;20054;-83
2023/10/15 00:22:44;;;;;;;13.40;6.25;;;;;;;14.89;72.98;99779.22;5136500;27;20110;-84
2023/10/15 00:25:12;;;;;;;11.38;6.03;;;;;;;15.01;71.27;99744.97;5139868;27;20027;-83
2023/10/15 00:27:39;;;;;;;10.63;5.53;;;;;;;14.42;74.30;99775.22;5141207;27;20023;-83
2023/10/15 00:30:18;;;;;;;14.02;6.10;;;;;;;14.24;75.09;99757.56;5150425;27;20019;-84
2023/10/15 00:32:44;;;;;;;9.98;5.38;;;;;;;13.68;77.84;99770.28;5142335;27;20023;-84
2023/10/15 00:35:11;;;;;;;11.95;5.57;;;;;;;13.75;76.95;99757.50;5144282;27;20079;-81
2023/10/15 00:37:40;;;;;;;11.80;5.40;;;;;;;14.23;74.20;99747.94;5137629;27;20084;-82
2023/10/15 00:40:16;;;;;;;9.55;5.35;;;;;;;14.47;73.59;99770.72;5142038;27;20029;-83
2023/10/15 00:42:43;;;;;;;11.77;5.43;;;;;;;14.39;73.89;99762.31;5150517;27;20046;-86
2023/10/15 00:45:08;;;;;;;12.68;5.95;;;;;;;13.93;75.84;99743.78;5142290;27;20027;-84
2023/10/15 00:47:35;;;;;;;11.40;6.70;;;;;;;13.70;77.44;99754.75;5146151;27;20099;-83
2023/10/15 00:50:07;;;;;;;11.45;5.75;;;;;;;13.46;78.82;99749.59;5144131;27;20058;-83
2023/10/15 00:52:38;;;;;;;11.00;6.10;;;;;;;13.18;79.56;99750.50;5147757;27;20048;-82
2023/10/15 00:55:05;;;;;;;11.50;6.00;;;;;;;13.42;77.82;99733.22;5147711;27;20026;-84
2023/10/15 00:57:41;;;;;;;11.32;5.97;;;;;;;13.53;77.31;99722.66;5146405;27;20023;-84
2023/10/15 01:03:00;;;;;;;13.25;5.88;;;;;;;14.11;75.24;99774.06;5128736;27;20088;-81
2023/10/15 01:05:27;;;;;;;13.50;6.38;;;;;;;13.69;76.97;99759.31;5150699;27;20083;-86
2023/10/15 01:07:54;;;;;;;10.88;5.57;;;;;;;14.04;75.53;99758.97;5139164;27;20034;-81
2023/10/15 01:10:40;;;;;;;12.80;5.60;;;;;;;14.11;73.40;99742.69;5135892;27;20047;-80
2023/10/15 01:13:17;;;;;;;10.82;5.28;;;;;;;14.14;74.24;99752.09;5125631;27;20106;-81
2023/10/15 01:15:45;;;;;;;11.20;6.00;;;;;;;14.24;73.31;99750.38;5149089;27;20566;-84
2023/10/15 01:18:11;;;;;;;9.43;5.53;;;;;;;14.30;72.36;99747.72;5138394;27;20038;-81
2023/10/15 01:20:40;;;;;;;12.90;5.65;;;;;;;13.81;75.02;99756.50;5136711;27;20406;-81
2023/10/15 01:23:06;;;;;;;9.75;5.53;;;;;;;12.91;78.18;99737.72;5133542;27;20043;-84
2023/10/15 01:25:33;;;;;;;8.05;5.20;;;;;;;12.97;77.64;99731.41;5132850;27;20092;-81
2023/10/15 01:28:00;;;;;;;10.30;5.65;;;;;;;12.89;78.03;99749.72;5134365;27;20054;-80
2023/10/15 01:30:26;;;;;;;10.55;4.93;;;;;;;12.76;78.58;99730.25;5149686;27;20105;-80
2023/10/15 01:32:52;;;;;;;9.85;5.57;;;;;;;12.62;79.44;99718.22;5134919;27;20023;-81
2023/10/15 01:35:19;;;;;;;9.68;5.82;;;;;;;13.55;76.25;99742.78;5153853;27;20018;-81
2023/10/15 01:40:51;;;;;;;9.73;5.60;;;;;;;13.26;76.64;99713.41;5124895;27;20488;-82
2023/10/15 01:43:17;;;;;;;11.07;5.35;;;;;;;13.35;76.95;99743.28;5122965;27;20539;-84
2023/10/15 01:45:47;;;;;;;11.32;5.95;;;;;;;13.10;77.09;99705.34;5142781;27;20118;-81
2023/10/15 01:48:38;;;;;;;11.52;5.82;;;;;;;12.61;79.09;99705.91;5153873;27;20047;-82
2023/10/15 01:51:09;;;;;;;9.38;5.53;;;;;;;12.84;78.68;99719.16;5129355;27;20037;-82
2023/10/15 01:53:39;;;;;;;12.85;6.13;;;;;;;12.37;79.91;99706.03;5136310;27;20849;-81
2023/10/15 01:56:06;;;;;;;10.82;6.18;;;;;;;13.26;76.21;99736.69;5128832;27;20434;-80
2023/10/15 01:58:32;;;;;;;12.55;6.07;;;;;;;13.49;74.73;99737.59;5142177;27;20095;-80
2023/10/15 02:01:13;;;;;;;11.30;6.13;;;;;;;13.21;74.91;99697.25;5134782;27;20461;-81
2023/10/15 02:03:42;;;;;;;10.48;5.68;;;;;;;13.33;74.78;99729.31;5134415;27;20041;-83
2023/10/15 02:06:08;;;;;;;15.38;6.70;;;;;;;13.32;76.01;99748.31;5140626;27;20466;-81
2023/10/15 02:08:37;;;;;;;12.60;6.60;;;;;;;13.44;76.06;99749.84;5131779;27;20512;-81
2023/10/15 02:11:21;;;;;;;13.38;6.32;;;;;;;12.76;79.17;99730.25;5136968;27;20031;-82
2023/10/15 02:13:47;;;;;;;9.82;5.80;;;;;;;12.38;80.27;99734.41;5135576;27;20034;-81
2023/10/15 02:16:25;;;;;;;14.68;6.47;;;;;;;12.69;78.26;99715.41;5143314;27;20519;-81
2023/10/15 02:18:51;;;;;;;9.50;5.28;;;;;;;12.38;79.32;99729.06;5153059;27;20030;-81
2023/10/15 02:21:19;;;;;;;13.70;5.65;;;;;;;12.67;77.60;99721.00;5147750;27;20037;-81
2023/10/15 02:23:49;;;;;;;13.27;6.18;;;;;;;12.43;79.15;99737.16;5144706;27;20377;-82
2023/10/15 02:26:23;;;;;;;9.23;5.50;;;;;;;12.16;80.79;99730.75;5142245;27;20045;-83
2023/10/15 02:28:53;;;;;;;15.70;5.97;;;;;;;12.37;79.49;99738.09;5139721;27;20488;-81
2023/10/15 02:31:22;;;;;;;12.45;5.45;;;;;;;12.26;80.98;99693.53;5133038;27;20030;-80
2023/10/15 02:33:49;;;;;;;16.58;6.75;;;;;;;12.43;82.57;99753.19;5135958;27;20034;-84
2023/10/15 02:36:23;;;;;;;12.27;5.78;;;;;;;12.15;84.98;99734.47;5139456;27;20030;-80
2023/10/15 02:38:52;;;;;;;12.48;6.22;;;;;;;12.63;83.49;99747.41;5140333;27;20039;-84
2023/10/15 02:41:23;;;;;;;10.02;5.47;;;;;;;12.85;83.00;99747.53;5132357;27;20110;-80
2023/10/15 02:43:53;;;;;;;12.70;5.43;;;;;;;12.88;82.52;99732.06;5135804;27;20043;-81
2023/10/15 02:46:22;;;;;;;10.90;5.43;;;;;;;12.82;82.17;99723.94;5132007;27;20564;-81
2023/10/15 02:48:48;;;;;;;12.45;5.63;;;;;;;12.77;82.75;99733.72;5142070;27;20444;-82
2023/10/15 02:51:18;;;;;;;9.93;5.25;;;;;;;12.84;82.78;99748.59;5136082;27;20038;-81
2023/10/15 02:53:50;;;;;;;10.77;6.18;;;;;;;12.76;82.21;99718.75;5132500;27;20035;-81
2023/10/15 02:56:17;;;;;;;12.05;5.78;;;;;;;12.68;83.57;99733.31;5146745;27;20106;-81
2023/10/15 02:58:44;;;;;;;12.18;5.32;;;;;;;12.36;85.62;99730.31;5130611;27;20034;-81
2023/10/15 03:01:20;;;;;;;9.20;5.43;;;;;;;11.73;89.00;99722.09;5131858;27;20023;-83
2023/10/15 03:03:50;;;;;;;16.98;5.95;;;;;;;11.48;88.16;99725.00;5132945;27;20039;-81
2023/10/15 03:06:31;;;;;;;11.73;5.68;;;;;;;11.19;86.87;99711.56;5143964;27;20035;-81
2023/10/15 03:08:57;;;;;;;11.68;5.10;;;;;;;10.70;83.18;99716.22;5131732;27;20027;-80
2023/10/15 03:11:24;;;;;;;10.02;5.28;;;;;;;11.46;80.90;99732.44;5135938;27;20106;-80
2023/10/15 03:14:12;;;;;;;9.02;4.90;;;;;;;10.67;84.29;99698.03;5129726;27;20054;-81
2023/10/15 03:16:36;;;;;;;10.00;4.80;;;;;;;11.18;83.09;99714.47;5140364;27;20027;-81
2023/10/15 03:19:19;;;;;;;9.60;5.07;;;;;;;10.95;85.48;99720.56;5131592;27;20031;-85
2023/10/15 03:21:45;;;;;;;10.77;5.55;;;;;;;11.02;84.33;99694.63;5134474;27;20169;-80
2023/10/15 03:24:14;;;;;;;10.25;5.57;;;;;;;11.61;82.85;99729.31;5131905;27;20091;-81
2023/10/15 03:26:47;;;;;;;14.57;6.40;;;;;;;11.70;81.79;99724.44;5111037;28;20031;-81
2023/10/15 03:29:15;;;;;;;10.40;5.95;;;;;;;11.90;81.20;99727.56;5128647;27;20410;-81
2023/10/15 03:31:46;;;;;;;10.73;6.38;;;;;;;11.56;82.46;99692.63;5142369;27;20352;-81
2023/10/15 03:36:50;;;;;;;18.15;7.03;;;;;;;11.83;82.37;99710.84;5146586;27;20031;-81
2023/10/15 03:39:37;;;;;;;11.63;6.05;;;;;;;11.21;84.93;99698.78;5138052;27;20042;-81
2023/10/15 03:42:17;;;;;;;14.32;6.85;;;;;;;11.17;85.31;99681.59;5135286;27;20102;-80
2023/10/15 03:44:45;;;;;;;11.75;6.68;;;;;;;11.78;82.62;99716.84;5133313;27;20034;-81
2023/10/15 03:47:16;;;;;;;12.80;6.70;;;;;;;11.23;85.08;99704.72;5138333;27;20018;-81
2023/10/15 03:49:46;;;;;;;11.18;5.93;;;;;;;11.64;82.63;99715.50;5139377;27;20054;-83
2023/10/15 03:52:20;;;;;;;12.95;7.35;;;;;;;11.56;83.29;99708.63;5143190;27;20514;-81
2023/10/15 03:54:49;;;;;;;13.68;6.25;;;;;;;11.02;84.89;99699.94;5133844;27;20088;-82
2023/10/15 03:57:18;;;;;;;13.65;6.38;;;;;;;10.88;84.79;99703.88;5147763;27;20554;-82
2023/10/15 03:59:51;;;;;;;10.07;5.70;;;;;;;10.73;85.85;99707.78;5136020;27;20027;-81
2023/10/15 04:02:22;;;;;;;12.82;7.43;;;;;;;10.94;83.58;99665.59;5137203;27;20027;-83
2023/10/15 04:05:00;;;;;;;10.95;5.75;;;;;;;11.16;83.26;99685.34;5137870;27;20033;-81
2023/10/15 04:07:29;;;;;;;13.35;6.72;;;;;;;11.52;81.06;99686.13;5156231;27;20543;-83
2023/10/15 04:09:56;;;;;;;11.85;6.50;;;;;;;11.45;83.40;99688.91;5148916;27;20038;-81
2023/10/15 04:12:27;;;;;;;10.48;6.22;;;;;;;11.43;84.00;99674.19;5137137;27;20416;-82
2023/10/15 04:14:52;;;;;;;10.57;6.22;;;;;;;10.55;85.84;99667.88;5140054;27;20118;-81
2023/10/15 04:17:18;;;;;;;12.07;5.80;;;;;;;10.13;85.57;99638.50;5145128;27;20062;-84
2023/10/15 04:19:43;;;;;;;8.75;5.45;;;;;;;10.24;86.12;99669.72;5129026;27;20023;-81
2023/10/15 04:22:15;;;;;;;10.32;5.78;;;;;;;10.06;87.14;99660.72;5147054;27;20092;-81
2023/10/15 04:24:46;;;;;;;11.70;6.30;;;;;;;10.30;85.77;99666.19;5140069;27;20106;-83
2023/10/15 04:27:15;;;;;;;18.55;6.35;;;;;;;11.07;82.34;99694.72;5141896;27;20277;-83
2023/10/15 04:29:53;;;;;;;12.15;6.13;;;;;;;11.22;81.95;99689.75;5120269;27;20084;-81
2023/10/15 04:32:28;;;;;;;14.38;6.88;;;;;;;11.43;80.76;99690.22;5141487;27;20058;-81
2023/10/15 04:34:56;;;;;;;9.93;6.03;;;;;;;11.12;82.96;99675.38;5136262;27;20290;-80
2023/10/15 04:37:23;;;;;;;11.88;7.35;;;;;;;10.70;86.64;99673.56;5138088;27;20019;-80
2023/10/15 04:39:52;;;;;;;13.07;7.13;;;;;;;10.27;88.40;99618.59;5153295;27;20110;-81
2023/10/15 04:42:30;;;;;;;12.82;6.72;;;;;;;10.53;89.07;99678.75;5135995;27;20041;-84
2023/10/15 04:44:56;;;;;;;12.60;7.43;;;;;;;10.55;89.33;99667.88;5137529;27;20050;-81
2023/10/15 04:47:30;;;;;;;13.23;7.28;;;;;;;10.30;90.18;99660.00;5137317;27;20031;-86
2023/10/15 04:49:58;;;;;;;14.80;8.25;;;;;;;10.51;90.03;99686.16;5142016;27;20046;-82
2023/10/15 04:52:25;;;;;;;21.83;9.80;;;;;;;10.50;91.41;99657.06;5152023;27;20027;-82
2023/10/15 04:54:55;;;;;;;21.90;11.32;;;;;;;10.76;91.48;99680.66;5145925;27;20038;-82
2023/10/15 04:57:21;;;;;;;28.35;11.00;;;;;;;10.72;92.10;99663.47;5145503;27;20030;-81
2023/10/15 04:59:46;;;;;;;18.73;7.75;;;;;;;10.61;90.98;99664.28;5137701;27;20072;-82
2023/10/15 05:02:12;;;;;;;20.08;8.52;;;;;;;10.26;88.81;99668.44;5152920;27;20031;-83
2023/10/15 05:04:37;;;;;;;12.60;7.28;;;;;;;10.23;89.11;99678.72;5149099;27;20031;-82
2023/10/15 05:07:03;;;;;;;16.45;7.20;;;;;;;10.42;88.39;99691.00;5136968;27;20023;-81
2023/10/15 05:09:31;;;;;;;46.40;9.23;;;;;;;10.79;86.88;99679.41;5145828;27;20033;-81
2023/10/15 05:11:57;;;;;;;23.45;9.18;;;;;;;10.77;88.32;99666.28;5130472;27;20440;-81
2023/10/15 05:14:23;;;;;;;17.20;8.95;;;;;;;11.50;86.77;99661.50;5136474;27;20035;-84
2023/10/15 05:16:48;;;;;;;13.90;8.88;;;;;;;11.73;85.68;99668.69;5135056;27;20049;-82
2023/10/15 05:19:17;;;;;;;21.13;9.00;;;;;;;11.82;85.38;99671.78;5132036;27;20031;-86
2023/10/15 05:21:51;;;;;;;17.67;9.60;;;;;;;11.62;87.37;99689.00;5148849;27;20027;-81
2023/10/15 05:24:18;;;;;;;19.95;9.02;;;;;;;11.06;89.25;99650.41;5147358;27;20035;-83
2023/10/15 05:26:46;;;;;;;15.27;7.05;;;;;;;10.70;89.53;99662.91;5134668;27;20034;-83
2023/10/15 05:29:13;;;;;;;16.30;6.82;;;;;;;10.71;91.32;99675.19;5134158;27;20027;-81
2023/10/15 05:31:42;;;;;;;12.60;6.70;;;;;;;10.67;92.00;99668.69;5131731;27;20066;-81
2023/10/15 05:34:08;;;;;;;16.58;8.02;;;;;;;10.85;92.25;99684.63;5131391;27;20035;-84
2023/10/15 05:36:35;;;;;;;15.00;8.40;;;;;;;10.88;91.36;99688.69;5143552;27;20151;-82
2023/10/15 05:39:02;;;;;;;13.88;8.65;;;;;;;10.83;92.00;99670.69;5136598;27;20550;-81
2023/10/15 05:41:31;;;;;;;18.45;8.30;;;;;;;11.70;87.91;99684.34;5125095;27;20031;-82
2023/10/15 05:43:56;;;;;;;19.20;9.13;;;;;;;11.94;84.65;99656.56;5132423;27;20415;-82
2023/10/15 05:46:22;;;;;;;19.95;8.43;;;;;;;12.15;84.50;99671.13;5133485;27;20019;-82
2023/10/15 05:48:47;;;;;;;15.90;8.52;;;;;;;12.23;84.12;99686.78;5141061;27;20042;-81
2023/10/15 05:51:13;;;;;;;18.58;9.35;;;;;;;12.16;85.20;99677.28;5132547;27;20480;-84
2023/10/15 05:53:39;;;;;;;24.38;11.55;;;;;;;12.56;82.82;99663.03;5136241;27;20023;-83
2023/10/15 05:56:05;;;;;;;35.47;22.98;;;;;;;12.68;84.26;99689.72;5133759;27;20513;-82
2023/10/15 05:58:31;;;;;;;21.55;11.13;;;;;;;13.12;82.19;99696.03;5131200;27;20019;-81
2023/10/15 06:00:57;;;;;;;16.55;9.80;;;;;;;13.26;81.60;99691.97;5133134;27;20034;-82
2023/10/15 06:03:22;;;;;;;15.35;9.23;;;;;;;13.34;81.16;99679.25;5134406;27;20108;-83
2023/10/15 06:05:48;;;;;;;15.00;9.38;;;;;;;13.54;82.12;99700.16;5132990;27;20113;-81
2023/10/15 06:08:14;;;;;;;23.55;11.38;;;;;;;13.41;81.34;99666.50;5131733;27;20027;-85
2023/10/15 06:10:39;;;;;;;23.40;11.05;;;;;;;13.72;78.22;99635.53;5134996;27;20031;-83
2023/10/15 06:13:05;;;;;;;21.92;11.00;;;;;;;14.07;76.92;99669.97;5146066;27;20043;-83
2023/10/15 06:15:30;;;;;;;20.20;11.38;;;;;;;14.12;78.35;99689.84;5131006;27;20021;-83
2023/10/15 06:17:56;;;;;;;21.92;11.45;;;;;;;14.09;78.17;99695.75;5134957;27;20034;-83
2023/10/15 06:20:21;;;;;;;16.50;11.68;;;;;;;14.40;75.59;99704.91;5131244;27;20053;-83
2023/10/15 06:22:48;;;;;;;15.13;10.55;;;;;;;14.58;74.21;99695.75;5133596;27;20385;-82
2023/10/15 06:25:18;;;;;;;15.98;10.80;;;;;;;14.69;72.90;99694.78;5134702;27;20027;-83
2023/10/15 06:27:43;;;;;;;17.20;11.00;;;;;;;14.78;72.41;99697.78;5122058;27;20029;-83
2023/10/15 06:30:15;;;;;;;25.13;11.60;;;;;;;14.57;73.31;99694.13;5130742;27;20433;-82
2023/10/15 06:32:50;;;;;;;17.75;10.73;;;;;;;14.66;73.19;99685.34;5136580;27;20075;-81
2023/10/15 06:35:19;;;;;;;22.75;12.00;;;;;;;14.71;72.91;99673.88;5143554;27;20109;-85
2023/10/15 06:37:50;;;;;;;18.05;11.18;;;;;;;14.39;73.53;99671.91;5133548;27;20027;-83
2023/10/15 06:40:16;;;;;;;20.77;11.38;;;;;;;14.73;71.89;99693.22;5140785;27;20023;-81
2023/10/15 06:42:43;;;;;;;26.30;11.80;;;;;;;14.83;71.23;99703.19;5131700;27;20027;-82
2023/10/15 06:45:09;;;;;;;18.13;11.30;;;;;;;14.74;71.97;99694.00;5130534;27;20122;-84
2023/10/15 06:47:35;;;;;;;23.63;11.95;;;;;;;14.63;71.79;99688.56;5131761;27;20106;-82
2023/10/15 06:50:05;;;;;;;20.15;12.23;;;;;;;14.75;70.94;99685.72;5138263;27;20690;-83
2023/10/15 06:52:32;;;;;;;22.00;11.93;;;;;;;14.74;70.38;99669.84;5139624;27;20084;-83
2023/10/15 06:54:58;;;;;;;20.55;12.35;;;;;;;14.39;70.95;99636.25;5133724;27;20783;-81
2023/10/15 06:57:23;;;;;;;20.85;12.30;;;;;;;14.59;70.87;99670.53;5133454;27;20106;-84
2023/10/15 06:59:52;;;;;;;17.88;11.55;;;;;;;14.76;71.31;99676.56;5134646;27;20026;-82
2023/10/15 07:02:17;;;;;;;24.20;14.85;;;;;;;14.60;71.91;99642.63;5150327;27;20459;-83
2023/10/15 07:04:43;;;;;;;21.60;12.40;;;;;;;15.20;70.03;99664.78;5139554;27;20118;-81
2023/10/15 07:07:08;;;;;;;24.77;14.20;;;;;;;15.59;68.72;99668.00;5133239;27;20027;-82
2023/10/15 07:09:35;;;;;;;21.23;12.00;;;;;;;15.73;68.03;99673.69;5143286;27;20058;-81
2023/10/15 07:12:00;;;;;;;20.77;10.88;;;;;;;15.78;69.99;99686.38;5131317;27;20019;-82
2023/10/15 07:14:25;;;;;;;18.90;11.20;;;;;;;15.80;69.13;99673.47;5135256;27;20480;-82
2023/10/15 07:16:51;;;;;;;21.88;10.50;;;;;;;15.94;66.53;99653.09;5140693;27;20018;-87
2023/10/15 07:19:16;;;;;;;20.08;10.23;;;;;;;16.14;66.43;99657.72;5148784;27;20027;-83
2023/10/15 07:21:42;;;;;;;24.05;10.48;;;;;;;16.60;64.91;99655.09;5132609;27;20027;-83
2023/10/15 07:24:11;;;;;;;19.48;10.40;;;;;;;16.62;65.58;99662.91;5132042;27;20076;-84
2023/10/15 07:26:39;;;;;;;17.95;10.20;;;;;;;16.59;64.19;99647.28;5148297;27;20020;-82
2023/10/15 07:29:05;;;;;;;22.08;10.43;;;;;;;17.02;61.54;99645.13;5133603;27;20476;-83
2023/10/15 07:31:30;;;;;;;20.77;11.23;;;;;;;16.77;65.05;99633.28;5146040;27;20035;-82
2023/10/15 07:33:58;;;;;;;14.00;9.77;;;;;;;17.28;60.99;99659.34;5133902;27;20415;-83
2023/10/15 07:36:23;;;;;;;20.90;10.27;;;;;;;17.10;62.14;99631.13;5114473;27;20019;-82
2023/10/15 07:38:49;;;;;;;17.13;10.50;;;;;;;17.15;62.34;99658.03;5120986;27;20037;-82
2023/10/15 07:41:14;;;;;;;19.77;9.98;;;;;;;17.40;62.60;99654.47;5131360;27;20054;-82
2023/10/15 07:43:40;;;;;;;15.98;9.57;;;;;;;17.87;60.11;99647.06;5129437;27;20110;-82
2023/10/15 07:46:05;;;;;;;14.32;9.23;;;;;;;17.93;59.43;99640.53;5146253;27;20033;-82
2023/10/15 07:48:31;;;;;;;19.13;9.75;;;;;;;17.88;60.38;99651.38;5133907;27;20506;-83
2023/10/15 07:50:56;;;;;;;15.82;9.50;;;;;;;17.90;59.29;99638.41;5130070;27;20578;-82
2023/10/15 07:53:22;;;;;;;15.85;9.32;;;;;;;18.36;57.61;99640.03;5139468;27;20118;-83
2023/10/15 07:55:49;;;;;;;15.65;9.60;;;;;;;18.50;56.69;99622.09;5140743;27;20036;-83
2023/10/15 07:58:14;;;;;;;23.83;9.88;;;;;;;19.01;54.56;99645.19;5145057;27;20495;-83
2023/10/15 08:00:39;;;;;;;17.55;8.93;;;;;;;18.91;54.55;99602.06;5149868;27;20117;-83
2023/10/15 08:03:07;;;;;;;17.45;8.77;;;;;;;19.35;53.53;99638.88;5143941;27;20030;-82
2023/10/15 08:05:33;;;;;;;;;;;;;;;19.28;53.86;99650.03;5131208;27;20522;-84
2023/10/15 08:07:59;;;;;;;20.67;9.88;;;;;;;19.45;52.64;99623.38;5147179;27;19911;-82
2023/10/15 08:10:31;;;;;;;14.73;8.40;;;;;;;19.60;53.07;99638.59;5130131;27;20049;-82
2023/10/15 08:12:58;;;;;;;14.80;9.30;;;;;;;19.42;52.69;99642.06;5146912;27;20114;-82
2023/10/15 08:15:24;;;;;;;17.42;10.93;;;;;;;19.66;51.50;99637.44;5129137;28;20023;-82
2023/10/15 08:17:50;;;;;;;16.30;8.65;;;;;;;19.51;52.69;99623.28;5132841;27;20023;-83
2023/10/15 08:20:15;;;;;;;15.13;7.93;;;;;;;19.58;53.48;99594.81;5133589;27;20461;-82
2023/10/15 08:22:41;;;;;;;19.40;8.27;;;;;;;19.98;51.60;99599.97;5148117;27;20388;-82
2023/10/15 08:25:14;;;;;;;12.88;8.25;;;;;;;20.04;52.20;99596.94;5145999;27;20031;-83
2023/10/15 08:27:44;;;;;;;16.20;7.82;;;;;;;20.37;50.62;99610.50;5130611;27;20110;-82
2023/10/15 08:30:12;;;;;;;14.15;7.68;;;;;;;20.68;50.31;99607.31;5133865;27;20420;-81
2023/10/15 08:32:41;;;;;;;12.63;7.80;;;;;;;20.53;50.03;99580.44;5129829;27;20027;-82
2023/10/15 08:35:08;;;;;;;12.85;7.28;;;;;;;20.92;48.91;99609.06;5150513;27;20035;-86
2023/10/15 08:37:35;;;;;;;12.77;7.60;;;;;;;20.86;49.79;99611.88;5146302;27;20027;-83
2023/10/15 08:40:04;;;;;;;10.52;6.68;;;;;;;21.12;48.97;99613.31;5139724;27;20042;-83
2023/10/15 08:42:35;;;;;;;16.35;8.32;;;;;;;20.81;49.81;99579.44;5150131;27;20909;-82
2023/10/15 08:45:05;;;;;;;12.70;7.03;;;;;;;21.33;48.08;99598.25;5137279;27;20027;-84
2023/10/15 08:47:33;;;;;;;18.55;6.75;;;;;;;21.40;47.27;99592.44;5135612;27;20023;-86
2023/10/15 08:50:00;;;;;;;12.48;5.82;;;;;;;21.75;47.19;99604.47;5153701;27;20050;-82
2023/10/15 08:52:27;;;;;;;16.40;7.03;;;;;;;21.76;46.94;99588.97;5142547;27;20475;-82
2023/10/15 08:54:56;;;;;;;15.32;6.80;;;;;;;22.00;46.02;99596.84;5133053;27;20313;-83
2023/10/15 08:57:25;;;;;;;12.40;6.68;;;;;;;21.79;46.60;99588.38;5134411;27;20035;-82
2023/10/15 08:59:51;;;;;;;18.30;11.60;;;;;;;21.70;47.46;99573.91;5153441;27;20518;-83
2023/10/15 09:02:18;;;;;;;11.85;6.28;;;;;;;21.74;46.44;99566.75;5143487;27;20027;-85
2023/10/15 09:04:45;;;;;;;14.35;6.65;;;;;;;22.25;45.78;99584.63;5146979;27;20023;-82
2023/10/15 09:07:14;;;;;;;13.63;7.20;;;;;;;22.18;45.54;99574.16;5137129;27;20159;-83
2023/10/15 09:09:40;;;;;;;16.05;6.20;;;;;;;22.17;45.00;99559.00;5136085;27;20023;-83
2023/10/15 09:12:06;;;;;;;13.82;6.70;;;;;;;21.91;45.68;99531.63;5134362;27;20031;-83
2023/10/15 09:14:42;;;;;;;12.50;5.78;;;;;;;22.36;45.50;99558.81;5132588;27;20448;-81
2023/10/15 09:17:14;;;;;;;12.30;5.80;;;;;;;22.21;45.03;99567.31;5138050;27;20042;-82
2023/10/15 09:19:41;;;;;;;13.32;6.38;;;;;;;21.89;46.35;99527.63;5134889;27;20096;-82
2023/10/15 09:22:16;;;;;;;8.68;5.55;;;;;;;22.37;44.42;99537.88;5148475;27;20063;-82
2023/10/15 09:24:43;;;;;;;11.77;5.88;;;;;;;22.82;43.92;99563.09;5133552;27;20035;-82
2023/10/15 09:27:08;;;;;;;16.85;5.97;;;;;;;23.45;42.85;99549.38;5143566;27;20031;-83
2023/10/15 09:29:34;;;;;;;12.10;5.65;;;;;;;23.27;42.40;99537.66;5140409;27;20035;-82
2023/10/15 09:32:04;;;;;;;9.65;5.43;;;;;;;23.54;41.09;99519.47;5134519;27;20022;-83
2023/10/15 09:34:37;;;;;;;10.38;5.78;;;;;;;23.72;40.51;99506.66;5154155;27;20034;-82
2023/10/15 09:37:05;;;;;;;15.70;9.10;;;;;;;23.53;40.88;99521.38;5150172;27;20079;-82
2023/10/15 09:39:31;;;;;;;9.85;5.55;;;;;;;23.65;41.06;99521.56;5151140;27;20018;-84
2023/10/15 09:41:57;;;;;;;24.58;14.38;;;;;;;23.78;40.96;99502.69;5141488;27;20163;-84
2023/10/15 09:44:26;;;;;;;17.13;7.05;;;;;;;24.16;40.14;99497.38;5125481;27;20106;-82
2023/10/15 09:46:52;;;;;;;15.10;5.97;;;;;;;23.73;39.61;99498.19;5133793;27;20033;-84
2023/10/15 09:49:18;;;;;;;11.43;5.47;;;;;;;23.88;40.15;99512.47;5151131;27;20542;-83
2023/10/15 09:51:47;;;;;;;12.18;6.10;;;;;;;23.77;40.71;99503.81;5152132;27;20022;-82
2023/10/15 09:54:14;;;;;;;11.02;6.38;;;;;;;23.95;40.51;99477.38;5135056;27;20035;-84
2023/10/15 09:56:41;;;;;;;10.73;6.65;;;;;;;24.83;38.60;99504.09;5144983;27;20023;-81
2023/10/15 09:59:07;;;;;;;23.80;10.07;;;;;;;25.02;38.85;99494.69;5139627;27;20026;-83
2023/10/15 10:01:36;;;;;;;19.05;6.45;;;;;;;24.47;38.97;99475.31;5148048;27;20408;-83
2023/10/15 10:04:15;;;;;;;20.55;8.15;;;;;;;25.03;39.57;99477.19;5135610;27;20053;-82
2023/10/15 10:06:53;;;;;;;14.23;7.30;;;;;;;25.27;39.33;99487.50;5134819;27;20027;-82
2023/10/15 10:09:51;;;;;;;14.15;7.38;;;;;;;25.41;38.40;99487.25;5134432;27;20065;-81
2023/10/15 10:13:02;;;;;;;14.40;7.35;;;;;;;25.73;37.75;99474.78;5143296;27;20041;-85
2023/10/15 10:15:54;;;;;;;15.93;7.72;;;;;;;25.97;38.11;99460.47;5129484;27;20039;-82
2023/10/15 10:18:21;;;;;;;12.82;7.30;;;;;;;26.01;36.31;99447.72;5136074;27;20050;-82
2023/10/15 10:20:48;;;;;;;13.75;5.93;;;;;;;25.90;35.82;99451.19;5135780;27;20035;-82
2023/10/15 10:23:14;;;;;;;11.63;6.43;;;;;;;26.60;35.93;99456.72;5133362;27;20027;-83
2023/10/15 10:25:44;;;;;;;15.73;7.85;;;;;;;25.78;36.54;99454.66;5131990;27;20033;-82
2023/10/15 10:28:10;;;;;;;22.65;11.82;;;;;;;26.46;35.96;99446.88;5142725;27;20381;-83
2023/10/15 10:30:37;;;;;;;15.48;8.05;;;;;;;26.63;34.73;99445.09;5139392;27;20034;-83
2023/10/15 10:33:03;;;;;;;13.13;7.75;;;;;;;26.14;35.67;99439.53;5110464;28;20031;-82
2023/10/15 10:35:41;;;;;;;15.52;7.70;;;;;;;26.56;35.74;99415.56;5137519;27;20540;-81
2023/10/15 10:38:10;;;;;;;14.23;6.90;;;;;;;26.84;34.91;99393.78;5141745;27;20385;-82
2023/10/15 10:40:59;;;;;;;14.55;6.88;;;;;;;26.68;34.31;99425.72;5147102;27;20111;-82
2023/10/15 10:43:27;;;;;;;14.75;7.28;;;;;;;27.17;33.22;99420.16;5134125;27;20064;-81
2023/10/15 10:45:57;;;;;;;15.93;7.40;;;;;;;27.55;33.15;99413.47;5139842;27;20439;-82
2023/10/15 10:48:25;;;;;;;9.30;5.70;;;;;;;26.76;33.86;99411.13;5148505;27;20228;-82
2023/10/15 10:51:23;;;;;;;16.75;6.18;;;;;;;26.40;34.86;99392.78;5137532;27;20031;-82
2023/10/15 10:53:55;;;;;;;13.70;6.50;;;;;;;26.60;34.30;99407.47;5130890;27;20027;-83
2023/10/15 10:56:28;;;;;;;13.35;6.55;;;;;;;27.04;34.14;99403.00;5132227;27;20038;-84
2023/10/15 10:58:57;;;;;;;10.35;6.40;;;;;;;27.68;33.01;99405.19;5135101;27;20038;-83
2023/10/15 11:01:23;;;;;;;15.32;7.15;;;;;;;27.89;33.67;99367.47;5130173;27;20035;-82
2023/10/15 11:03:52;;;;;;;11.25;6.32;;;;;;;27.99;31.50;99355.97;5143529;27;20201;-81
2023/10/15 11:06:18;;;;;;;11.55;5.55;;;;;;;28.08;32.55;99388.69;5131504;27;20102;-81
2023/10/15 11:08:47;;;;;;;12.52;4.97;;;;;;;27.92;32.12;99353.03;5130950;27;20164;-82
2023/10/15 11:11:15;;;;;;;11.27;4.90;;;;;;;28.22;30.84;99369.84;5131572;27;20076;-82
2023/10/15 11:13:40;;;;;;;11.85;5.60;;;;;;;27.68;31.98;99361.38;5132509;27;20023;-87
2023/10/15 11:16:10;;;;;;;10.90;5.65;;;;;;;27.81;32.98;99366.44;5152212;27;20042;-82
2023/10/15 11:18:38;;;;;;;12.10;5.82;;;;;;;27.95;31.38;99366.03;5139574;27;20019;-82
2023/10/15 11:21:03;;;;;;;;;;;;;;;28.36;30.58;99380.38;5134044;27;20110;-82
2023/10/15 11:23:29;;;;;;;9.30;5.27;;;;;;;28.45;30.43;99345.31;5129503;27;20010;-82
2023/10/15 11:25:55;;;;;;;10.23;5.32;;;;;;;28.76;29.33;99343.66;5134758;27;20027;-82
2023/10/15 11:28:20;;;;;;;11.65;4.80;;;;;;;28.80;29.75;99355.50;5147094;27;20030;-85
2023/10/15 11:30:46;;;;;;;18.95;8.35;;;;;;;29.12;30.50;99357.41;5142000;27;20026;-81
2023/10/15 11:33:12;;;;;;;14.88;5.45;;;;;;;28.88;30.50;99370.19;5141641;27;20034;-79
2023/10/15 11:35:38;;;;;;;13.25;5.63;;;;;;;28.83;29.98;99343.84;5133184;27;20052;-82
2023/10/15 11:38:10;;;;;;;11.65;4.72;;;;;;;29.43;30.02;99364.69;5145809;27;20054;-81
2023/10/15 11:40:39;;;;;;;12.93;4.95;;;;;;;28.99;29.73;99337.47;5133556;27;20455;-81